Time;durP1;ratioP1;P1;durP2;ratioP2;P2;SDS_P1;SDS_P2;PMS_P1;PMS_P2;Temp;Humidity;BMP_temperature;BMP_pressure;BME280_temperature;BME280_humidity;BME280_pressure;Samples;Min_cycle;Max_cycle;Signal;HPM_P1;HPM_P2
2022/07/29 00:01:19;;;;;;;2.50;1.90;;;;;;;20.28;100.00;96288.19;5052037;27;102408;-65
2022/07/29 00:03:47;;;;;;;2.93;1.83;;;;;;;20.31;100.00;96278.66;5052228;27;102416;-65
2022/07/29 00:06:14;;;;;;;2.10;1.80;;;;;;;20.30;100.00;96277.06;5051340;27;102925;-65
2022/07/29 00:08:41;;;;;;;1.90;1.80;;;;;;;20.18;100.00;96275.00;5051854;27;101894;-64
2022/07/29 00:11:10;;;;;;;1.77;1.60;;;;;;;20.04;100.00;96274.25;5051943;27;102816;-63
2022/07/29 00:13:37;;;;;;;1.77;1.67;;;;;;;20.04;100.00;96266.16;5050843;27;102650;-63
2022/07/29 00:16:05;;;;;;;2.00;1.90;;;;;;;20.04;100.00;96266.16;5055497;27;101727;-63
2022/07/29 00:18:32;;;;;;;1.80;1.70;;;;;;;19.98;100.00;96262.03;5051174;27;102583;-63
2022/07/29 00:20:59;;;;;;;1.87;1.77;;;;;;;20.08;100.00;96264.47;5051790;27;101882;-64
2022/07/29 00:23:26;;;;;;;1.70;1.60;;;;;;;20.08;100.00;96263.66;5051892;27;102299;-64
2022/07/29 00:25:53;;;;;;;2.17;1.97;;;;;;;20.13;100.00;96263.53;5050978;27;102911;-64
2022/07/29 00:28:22;;;;;;;2.40;1.70;;;;;;;20.10;100.00;96264.16;5050127;27;101860;-64
2022/07/29 00:30:49;;;;;;;2.47;1.73;;;;;;;20.22;100.00;96253.53;5051542;27;102334;-64
2022/07/29 00:33:16;;;;;;;2.00;1.90;;;;;;;20.25;100.00;96259.13;5051050;27;102802;-64
2022/07/29 00:35:45;;;;;;;3.07;1.80;;;;;;;20.22;100.00;96257.03;5051410;27;102343;-63
2022/07/29 00:38:14;;;;;;;1.77;1.60;;;;;;;20.27;100.00;96256.09;5054407;27;102337;-63
2022/07/29 00:40:42;;;;;;;4.33;1.63;;;;;;;20.33;100.00;96260.25;5051253;27;101897;-63
2022/07/29 00:43:09;;;;;;;2.10;1.77;;;;;;;20.35;100.00;96263.41;5050033;27;105043;-64
2022/07/29 00:45:38;;;;;;;2.17;1.70;;;;;;;20.36;100.00;96254.19;5049674;27;105887;-64
2022/07/29 00:48:08;;;;;;;1.80;1.60;;;;;;;20.33;100.00;96250.22;5051047;27;101867;-64
2022/07/29 00:50:36;;;;;;;2.10;1.67;;;;;;;20.36;100.00;96246.91;5050044;27;105499;-64
2022/07/29 00:53:04;;;;;;;2.07;1.80;;;;;;;20.50;100.00;96249.47;5050490;27;102589;-64
2022/07/29 00:55:32;;;;;;;2.17;1.50;;;;;;;20.51;100.00;96249.16;5049822;27;101865;-64
2022/07/29 00:58:00;;;;;;;2.07;1.70;;;;;;;20.53;100.00;96240.72;5052355;27;105120;-64
2022/07/29 01:00:29;;;;;;;1.70;1.60;;;;;;;20.42;100.00;96242.13;5051479;27;101757;-64
2022/07/29 01:02:58;;;;;;;1.87;1.77;;;;;;;20.53;100.00;96238.81;5051018;27;104089;-65
2022/07/29 01:05:29;;;;;;;1.60;1.50;;;;;;;20.44;100.00;96234.53;5048542;27;105876;-64
2022/07/29 01:07:58;;;;;;;1.83;1.73;;;;;;;20.22;100.00;96237.34;5049760;27;101945;-64
2022/07/29 01:10:26;;;;;;;1.83;1.70;;;;;;;20.39;100.00;96232.75;5050834;27;101719;-64
2022/07/29 01:12:56;;;;;;;2.20;1.97;;;;;;;20.38;100.00;96236.56;5050345;27;101777;-65
2022/07/29 01:15:23;;;;;;;2.20;1.80;;;;;;;20.40;100.00;96237.06;5049869;27;102219;-64
2022/07/29 01:17:59;;;;;;;2.37;2.03;;;;;;;20.46;100.00;96233.09;5050840;27;101762;-64
2022/07/29 01:20:38;;;;;;;1.70;1.60;;;;;;;20.39;100.00;96235.44;5053838;27;103096;-64
2022/07/29 01:23:40;;;;;;;1.90;1.80;;;;;;;20.24;100.00;96227.00;5051121;27;102777;-64
2022/07/29 01:26:32;;;;;;;1.50;1.40;;;;;;;20.14;100.00;96228.13;5037045;27;103287;-64
2022/07/29 01:29:17;;;;;;;1.93;1.77;;;;;;;20.16;100.00;96223.19;5050494;27;101742;-64
2022/07/29 01:31:49;;;;;;;1.70;1.60;;;;;;;20.14;100.00;96219.19;5046677;27;105225;-64
2022/07/29 01:34:32;;;;;;;1.70;1.60;;;;;;;20.15;100.00;96212.69;5050248;27;103255;-64
2022/07/29 01:37:07;;;;;;;1.80;1.70;;;;;;;20.01;100.00;96206.59;5050988;27;101766;-64
2022/07/29 01:39:37;;;;;;;1.37;1.37;;;;;;;19.76;100.00;96210.81;5048944;27;103766;-64
2022/07/29 01:42:11;;;;;;;2.17;1.80;;;;;;;19.83;100.00;96204.97;5048594;27;106167;-64
2022/07/29 01:44:47;;;;;;;2.10;2.00;;;;;;;20.05;100.00;96210.28;5054137;27;101715;-64
2022/07/29 01:47:18;;;;;;;1.83;1.70;;;;;;;20.13;100.00;96204.13;5049919;27;103102;-64
2022/07/29 01:49:51;;;;;;;2.10;1.90;;;;;;;20.13;100.00;96196.81;5049243;27;101929;-64
2022/07/29 01:52:24;;;;;;;1.87;1.77;;;;;;;20.04;100.00;96195.16;5048998;27;104420;-64
2022/07/29 01:54:56;;;;;;;1.83;1.70;;;;;;;19.57;100.00;96193.28;5048434;27;105575;-64
2022/07/29 01:57:29;;;;;;;2.40;2.00;;;;;;;19.56;100.00;96192.47;5050472;27;102027;-64
2022/07/29 02:00:00;;;;;;;2.13;2.03;;;;;;;19.63;100.00;96186.66;5048937;27;103710;-63
2022/07/29 02:02:29;;;;;;;2.10;2.00;;;;;;;19.68;100.00;96178.41;5049923;27;103339;-63
2022/07/29 02:04:58;;;;;;;1.90;1.80;;;;;;;19.69;100.00;96180.81;5049974;27;101842;-63
2022/07/29 02:07:29;;;;;;;1.70;1.60;;;;;;;19.67;100.00;96171.44;5051572;27;105866;-63
2022/07/29 02:09:59;;;;;;;1.80;1.70;;;;;;;19.72;100.00;96168.59;5050435;27;101677;-63
2022/07/29 02:12:29;;;;;;;2.27;2.07;;;;;;;19.71;100.00;96166.97;5048836;27;105380;-63
2022/07/29 02:15:01;;;;;;;2.30;1.83;;;;;;;19.70;100.00;96162.69;5049026;27;102665;-63
2022/07/29 02:17:33;;;;;;;2.03;1.80;;;;;;;19.75;100.00;96157.97;5050378;27;101666;-63
2022/07/29 02:20:04;;;;;;;1.80;1.70;;;;;;;19.58;100.00;96155.22;5050444;27;102410;-63
2022/07/29 02:22:34;;;;;;;2.17;1.80;;;;;;;19.47;100.00;96166.59;5047976;27;105650;-63
2022/07/29 02:25:02;;;;;;;3.37;2.13;;;;;;;19.31;100.00;96157.31;5048680;27;101984;-63
2022/07/29 02:27:30;;;;;;;2.07;1.87;;;;;;;19.25;100.00;96158.56;5048881;27;104918;-64
2022/07/29 02:30:02;;;;;;;2.30;2.10;;;;;;;19.25;100.00;96158.56;5051157;27;105206;-64
2022/07/29 02:32:30;;;;;;;2.00;1.90;;;;;;;19.09;100.00;96155.44;5048578;27;105510;-64
2022/07/29 02:35:00;;;;;;;2.10;1.90;;;;;;;19.08;100.00;96163.84;5047704;27;105456;-64
2022/07/29 02:37:28;;;;;;;2.27;1.90;;;;;;;19.00;100.00;96168.06;5050073;27;101707;-65
2022/07/29 02:39:57;;;;;;;1.60;1.50;;;;;;;19.06;100.00;96168.72;5048167;27;105128;-64
2022/07/29 02:42:27;;;;;;;2.77;1.80;;;;;;;19.10;100.00;96172.41;5047805;27;103999;-64
2022/07/29 02:44:54;;;;;;;1.87;1.70;;;;;;;19.17;100.00;96161.97;5048338;27;101911;-64
2022/07/29 02:47:29;;;;;;;1.80;1.70;;;;;;;19.19;100.00;96155.16;5049795;27;102347;-63
2022/07/29 02:50:01;;;;;;;2.60;1.70;;;;;;;19.23;100.00;96155.38;5047825;27;105422;-63
2022/07/29 02:52:43;;;;;;;2.03;1.90;;;;;;;19.24;100.00;96154.28;5051803;27;101682;-63
2022/07/29 02:55:16;;;;;;;2.80;1.60;;;;;;;19.21;100.00;96155.69;5047683;27;104176;-63
2022/07/29 02:57:47;;;;;;;1.50;1.47;;;;;;;19.20;100.00;96155.97;5049731;27;101926;-64
2022/07/29 03:00:17;;;;;;;1.80;1.70;;;;;;;19.15;100.00;96159.59;5051749;27;104879;-64
2022/07/29 03:02:51;;;;;;;1.60;1.50;;;;;;;19.10;100.00;96161.63;5050995;27;105332;-64
2022/07/29 03:05:21;;;;;;;1.70;1.57;;;;;;;19.08;100.00;96150.34;5052923;27;101976;-63
2022/07/29 03:07:52;;;;;;;1.60;1.50;;;;;;;19.21;100.00;96162.94;5051392;27;105143;-63
2022/07/29 03:10:19;;;;;;;1.90;1.60;;;;;;;19.06;100.00;96152.56;5051109;27;106045;-64
2022/07/29 03:12:47;;;;;;;1.67;1.57;;;;;;;19.11;100.00;96158.63;5055173;27;101878;-64
2022/07/29 03:15:15;;;;;;;3.07;1.73;;;;;;;19.05;100.00;96159.06;5050742;27;106095;-64
2022/07/29 03:17:42;;;;;;;1.60;1.50;;;;;;;19.03;100.00;96163.97;5051420;27;101896;-64
2022/07/29 03:20:13;;;;;;;1.80;1.70;;;;;;;18.95;100.00;96165.50;5052509;27;102580;-63
2022/07/29 03:22:43;;;;;;;2.37;1.70;;;;;;;19.13;100.00;96155.63;5050642;27;104215;-63
2022/07/29 03:25:11;;;;;;;1.90;1.80;;;;;;;19.18;100.00;96158.97;5051486;27;102015;-63
2022/07/29 03:27:38;;;;;;;1.50;1.40;;;;;;;19.25;100.00;96161.25;5052485;27;101687;-63
2022/07/29 03:30:07;;;;;;;1.93;1.77;;;;;;;19.21;100.00;96161.09;5050624;27;106605;-63
2022/07/29 03:32:34;;;;;;;2.40;1.90;;;;;;;19.49;100.00;96158.97;5051221;27;102033;-63
2022/07/29 03:35:01;;;;;;;2.10;1.60;;;;;;;19.44;100.00;96159.09;5055220;27;102308;-63
2022/07/29 03:37:31;;;;;;;1.83;1.73;;;;;;;19.41;100.00;96162.44;5050946;27;102107;-63
2022/07/29 03:39:59;;;;;;;1.80;1.70;;;;;;;19.36;100.00;96159.88;5050525;27;105596;-63
2022/07/29 03:42:31;;;;;;;1.80;1.70;;;;;;;19.28;100.00;96152.53;5050612;27;105814;-63
2022/07/29 03:45:01;;;;;;;3.13;1.60;;;;;;;19.39;100.00;96149.25;5052591;27;101687;-63
2022/07/29 03:47:31;;;;;;;1.93;1.77;;;;;;;19.35;100.00;96159.06;5052451;27;102470;-63
2022/07/29 03:50:03;;;;;;;1.50;1.40;;;;;;;19.17;100.00;96151.19;5051765;27;102826;-63
2022/07/29 03:52:32;;;;;;;1.63;1.53;;;;;;;18.72;100.00;96155.84;5050773;27;101929;-63
2022/07/29 03:55:00;;;;;;;2.57;1.73;;;;;;;18.81;100.00;96158.59;5052060;27;102908;-63
2022/07/29 03:57:29;;;;;;;2.03;1.67;;;;;;;18.78;100.00;96156.50;5053626;27;105325;-63
2022/07/29 03:59:57;;;;;;;2.73;1.80;;;;;;;18.75;100.00;96149.84;5050381;27;103582;-63
2022/07/29 04:02:25;;;;;;;3.03;1.80;;;;;;;18.67;100.00;96155.97;5050169;27;105389;-63
2022/07/29 04:04:52;;;;;;;2.80;1.87;;;;;;;18.72;100.00;96155.84;5051586;27;101819;-63
2022/07/29 04:07:20;;;;;;;2.53;1.87;;;;;;;18.84;100.00;96157.97;5052345;27;102374;-63
2022/07/29 04:09:48;;;;;;;2.10;1.40;;;;;;;18.77;100.00;96142.25;5049803;27;105794;-63
2022/07/29 04:12:16;;;;;;;2.00;1.83;;;;;;;18.59;100.00;96147.84;5051640;27;101922;-63
2022/07/29 04:14:43;;;;;;;2.50;2.00;;;;;;;18.36;100.00;96151.63;5052043;27;101771;-63
2022/07/29 04:17:10;;;;;;;2.10;1.90;;;;;;;18.68;100.00;96148.66;5049699;27;106072;-63
2022/07/29 04:19:37;;;;;;;2.43;2.07;;;;;;;18.73;100.00;96145.84;5053683;27;101802;-63
2022/07/29 04:22:04;;;;;;;2.70;1.97;;;;;;;18.63;100.00;96143.44;5051224;27;102815;-63
2022/07/29 04:24:31;;;;;;;2.13;1.93;;;;;;;18.55;100.00;96149.53;5051834;27;101834;-63
2022/07/29 04:27:00;;;;;;;2.40;1.83;;;;;;;18.23;100.00;96157.81;5051974;27;102455;-63
2022/07/29 04:29:27;;;;;;;2.00;1.90;;;;;;;18.23;100.00;96161.31;5050719;27;102733;-63
2022/07/29 04:31:54;;;;;;;3.30;1.90;;;;;;;18.13;100.00;96158.03;5050338;27;101954;-63
2022/07/29 04:34:22;;;;;;;2.00;1.77;;;;;;;18.11;100.00;96160.22;5050247;27;104075;-63
2022/07/29 04:36:49;;;;;;;3.07;2.00;;;;;;;18.47;100.00;96164.53;5049560;27;105465;-63
2022/07/29 04:39:17;;;;;;;4.53;2.40;;;;;;;18.47;100.00;96177.22;5049831;27;101937;-63
2022/07/29 04:41:44;;;;;;;2.13;2.03;;;;;;;18.67;100.00;96179.41;5054215;27;102932;-64
2022/07/29 04:44:13;;;;;;;2.00;1.90;;;;;;;18.50;100.00;96173.91;5050080;27;102211;-64
2022/07/29 04:46:40;;;;;;;2.67;1.73;;;;;;;18.67;100.00;96177.53;5051494;27;102398;-63
2022/07/29 04:49:07;;;;;;;2.53;1.90;;;;;;;18.82;100.00;96184.44;5050908;27;101988;-63
2022/07/29 04:51:34;;;;;;;1.90;1.80;;;;;;;18.88;100.00;96181.31;5050512;27;101859;-63
2022/07/29 04:54:01;;;;;;;3.43;2.20;;;;;;;18.99;100.00;96181.84;5051220;27;102708;-63
2022/07/29 04:56:28;;;;;;;2.60;2.40;;;;;;;19.06;100.00;96183.00;5048854;27;105941;-63
2022/07/29 04:58:56;;;;;;;2.43;1.90;;;;;;;18.99;100.00;96187.25;5050740;27;101832;-63
2022/07/29 05:01:24;;;;;;;2.50;1.80;;;;;;;18.99;100.00;96198.81;5051059;27;102929;-63
2022/07/29 05:03:52;;;;;;;2.50;1.93;;;;;;;19.18;100.00;96193.22;5052276;27;101963;-63
2022/07/29 05:06:19;;;;;;;2.73;2.00;;;;;;;19.11;100.00;96190.97;5050501;27;102868;-64
2022/07/29 05:08:46;;;;;;;2.43;1.83;;;;;;;19.05;100.00;96192.19;5050153;27;102566;-65
2022/07/29 05:11:12;;;;;;;3.37;2.20;;;;;;;18.95;100.00;96197.03;5049815;27;101976;-64
2022/07/29 05:13:40;;;;;;;4.47;1.97;;;;;;;18.91;100.00;96196.84;5050808;27;102232;-64
2022/07/29 05:16:09;;;;;;;2.73;2.33;;;;;;;18.91;100.00;96198.78;5045576;27;101904;-64
2022/07/29 05:18:38;;;;;;;5.00;2.23;;;;;;;18.81;100.00;96190.94;5036497;27;102309;-63
2022/07/29 05:21:05;;;;;;;3.53;2.10;;;;;;;18.94;100.00;96195.44;5030658;27;102330;-63
2022/07/29 05:23:32;;;;;;;5.03;2.20;;;;;;;19.04;100.00;96200.59;5033386;28;102612;-63
2022/07/29 05:25:59;;;;;;;1.80;1.70;;;;;;;19.01;100.00;96199.31;5040609;27;105180;-63
2022/07/29 05:28:26;;;;;;;2.10;2.00;;;;;;;19.19;100.00;96198.28;5048698;27;105833;-64
2022/07/29 05:30:53;;;;;;;3.47;1.90;;;;;;;19.52;100.00;96201.50;5044821;27;103730;-64
2022/07/29 05:33:20;;;;;;;1.90;1.80;;;;;;;19.47;100.00;96205.16;5049723;27;102868;-64
2022/07/29 05:35:49;;;;;;;4.00;2.07;;;;;;;19.47;100.00;96207.03;5041806;27;103170;-64
2022/07/29 05:38:16;;;;;;;2.07;1.90;;;;;;;19.63;100.00;96216.31;5029187;28;101964;-63
2022/07/29 05:40:43;;;;;;;2.10;1.90;;;;;;;19.69;100.00;96220.47;5028148;28;105393;-63
2022/07/29 05:43:10;;;;;;;1.97;1.77;;;;;;;19.70;100.00;96214.78;5043391;27;102742;-63
2022/07/29 05:45:39;;;;;;;1.73;1.63;;;;;;;19.83;100.00;96219.25;5052244;27;101855;-62
2022/07/29 05:48:07;;;;;;;3.23;1.93;;;;;;;20.02;100.00;96217.09;5046750;27;105869;-63
2022/07/29 05:50:34;;;;;;;1.83;1.57;;;;;;;19.91;100.00;96217.69;5047993;27;102131;-64
2022/07/29 05:53:03;;;;;;;2.23;2.03;;;;;;;19.99;100.00;96212.31;5048746;27;105759;-64
2022/07/29 05:55:30;;;;;;;1.73;1.63;;;;;;;20.07;100.00;96208.88;5047578;27;105940;-64
2022/07/29 05:57:57;;;;;;;4.50;1.80;;;;;;;20.30;100.00;96220.34;5037734;27;101890;-64
2022/07/29 06:00:25;;;;;;;1.97;1.87;;;;;;;20.32;100.00;96216.22;5032540;27;104001;-64
2022/07/29 06:02:52;;;;;;;2.30;2.00;;;;;;;20.50;100.00;96217.03;5049443;27;102627;-64
2022/07/29 06:05:19;;;;;;;2.50;1.80;;;;;;;20.58;100.00;96219.75;5048479;27;101823;-64
2022/07/29 06:07:47;;;;;;;1.73;1.63;;;;;;;20.96;100.00;96215.31;5050984;27;104654;-64
2022/07/29 06:10:16;;;;;;;1.77;1.63;;;;;;;21.04;100.00;96224.53;5047293;27;102036;-64
2022/07/29 06:12:43;;;;;;;2.63;1.90;;;;;;;21.14;100.00;96225.00;5048925;27;104904;-64
2022/07/29 06:15:11;;;;;;;2.07;1.90;;;;;;;21.12;100.00;96223.72;5045586;27;105134;-64
2022/07/29 06:17:38;;;;;;;2.30;1.67;;;;;;;21.17;100.00;96228.97;5042168;27;101862;-64
2022/07/29 06:20:06;;;;;;;2.07;1.70;;;;;;;21.08;100.00;96223.56;5028409;28;104134;-64
2022/07/29 06:22:33;;;;;;;3.17;2.00;;;;;;;21.33;100.00;96227.34;5030289;27;102599;-64
2022/07/29 06:25:02;;;;;;;3.67;1.97;;;;;;;21.28;100.00;96220.22;5029200;27;101965;-64
2022/07/29 06:27:31;;;;;;;2.40;1.87;;;;;;;21.59;100.00;96230.78;5030043;27;102346;-64
2022/07/29 06:29:58;;;;;;;2.27;1.67;;;;;;;21.41;100.00;96226.53;5032599;27;102832;-64
2022/07/29 06:32:25;;;;;;;3.20;1.80;;;;;;;21.34;100.00;96231.63;5032917;27;102374;-64
2022/07/29 06:34:52;;;;;;;2.40;1.70;;;;;;;21.30;100.00;96234.19;5032057;28;102564;-64
2022/07/29 06:37:20;;;;;;;1.80;1.70;;;;;;;21.14;100.00;96235.03;5046187;27;102207;-64
2022/07/29 06:39:47;;;;;;;2.17;1.87;;;;;;;21.29;100.00;96246.13;5032509;28;102225;-64
2022/07/29 06:42:14;;;;;;;2.93;1.77;;;;;;;21.27;100.00;96239.44;5033035;27;102888;-64
2022/07/29 06:44:44;;;;;;;2.40;1.90;;;;;;;21.13;100.00;96239.63;5031456;28;101929;-64
2022/07/29 06:47:11;;;;;;;1.83;1.70;;;;;;;21.21;100.00;96240.75;5034254;27;103345;-64
2022/07/29 06:49:38;;;;;;;2.00;1.80;;;;;;;21.20;100.00;96242.63;5038161;27;102531;-64
2022/07/29 06:52:05;;;;;;;2.40;1.80;;;;;;;21.11;100.00;96241.06;5054116;27;101877;-64
2022/07/29 06:54:32;;;;;;;1.87;1.77;;;;;;;21.09;100.00;96246.78;5050267;27;105729;-64
2022/07/29 06:57:17;;;;;;;2.20;2.00;;;;;;;21.17;100.00;96248.72;5048695;27;103344;-64
2022/07/29 06:59:46;;;;;;;2.93;1.90;;;;;;;21.08;100.00;96247.91;5033127;28;102249;-64
2022/07/29 07:02:13;;;;;;;2.13;1.83;;;;;;;21.14;100.00;96248.56;5046595;27;105979;-66
2022/07/29 07:04:55;;;;;;;2.20;2.00;;;;;;;21.33;100.00;96249.78;5051139;27;101964;-65
2022/07/29 07:07:23;;;;;;;3.07;2.03;;;;;;;21.30;100.00;96250.44;5049316;27;102521;-66
2022/07/29 07:09:50;;;;;;;2.10;1.90;;;;;;;21.23;100.00;96252.03;5050447;27;105877;-65
2022/07/29 07:12:17;;;;;;;2.10;1.90;;;;;;;21.36;100.00;96245.66;5039134;27;101907;-65
2022/07/29 07:15:09;;;;;;;1.73;1.63;;;;;;;21.68;100.00;96247.81;5032122;28;102934;-65
2022/07/29 07:17:37;;;;;;;3.73;1.70;;;;;;;22.16;100.00;96245.53;5032639;27;101746;-65
2022/07/29 07:20:05;;;;;;;1.77;1.67;;;;;;;22.15;100.00;96252.06;5032657;28;101871;-65
2022/07/29 07:22:33;;;;;;;1.83;1.70;;;;;;;22.10;100.00;96249.53;5030862;28;104139;-65
2022/07/29 07:25:06;;;;;;;1.80;1.70;;;;;;;22.13;100.00;96244.25;5045126;27;101963;-65
2022/07/29 07:27:51;;;;;;;2.20;1.67;;;;;;;22.70;100.00;96244.56;5053137;27;102588;-65
2022/07/29 07:30:20;;;;;;;3.90;1.97;;;;;;;23.04;100.00;96241.59;5050517;27;104596;-65
2022/07/29 07:32:47;;;;;;;2.17;1.80;;;;;;;23.03;100.00;96242.72;5034837;27;101812;-65
2022/07/29 07:35:15;;;;;;;4.93;1.63;;;;;;;23.10;100.00;96243.75;5054415;27;104996;-66
2022/07/29 07:37:43;;;;;;;3.00;1.70;;;;;;;22.57;100.00;96242.94;5052845;27;102067;-65
2022/07/29 07:40:12;;;;;;;1.53;1.43;;;;;;;23.30;100.00;96247.59;5051066;27;105415;-65
2022/07/29 07:42:39;;;;;;;2.53;1.67;;;;;;;23.52;100.00;96244.50;5032594;27;102851;-66
2022/07/29 07:45:08;;;;;;;1.60;1.50;;;;;;;23.63;100.00;96251.88;5050438;27;102282;-66
2022/07/29 07:47:37;;;;;;;1.60;1.50;;;;;;;23.39;100.00;96248.31;5051388;27;104218;-65
2022/07/29 07:50:06;;;;;;;1.50;1.40;;;;;;;23.62;100.00;96253.03;5040879;27;106077;-64
2022/07/29 07:52:34;;;;;;;3.07;1.70;;;;;;;23.06;100.00;96247.47;5032107;28;101967;-65
2022/07/29 07:55:06;;;;;;;2.93;1.60;;;;;;;23.20;100.00;96261.56;5032714;27;103412;-65
2022/07/29 07:57:39;;;;;;;2.13;1.57;;;;;;;24.05;100.00;96255.25;5035131;28;102519;-66
2022/07/29 08:00:07;;;;;;;1.90;1.70;;;;;;;24.03;100.00;96252.88;5045722;27;102822;-66
2022/07/29 08:02:42;;;;;;;1.70;1.53;;;;;;;24.18;100.00;96254.94;5048678;27;102394;-65
2022/07/29 08:05:11;;;;;;;1.90;1.40;;;;;;;24.73;100.00;96248.91;5032499;27;101897;-64
2022/07/29 08:07:38;;;;;;;1.37;1.27;;;;;;;24.70;100.00;96247.69;5032121;27;102596;-64
2022/07/29 08:10:06;;;;;;;2.53;1.33;;;;;;;24.72;100.00;96250.03;5050071;27;103240;-63
2022/07/29 08:12:33;;;;;;;1.50;1.40;;;;;;;25.28;100.00;96251.72;5051699;27;101895;-63
2022/07/29 08:15:17;;;;;;;1.40;1.27;;;;;;;25.18;100.00;96244.00;5051822;27;102332;-63
2022/07/29 08:17:46;;;;;;;1.40;1.30;;;;;;;25.50;100.00;96245.72;5049675;27;101758;-62
2022/07/29 08:20:13;;;;;;;1.80;1.70;;;;;;;25.98;100.00;96246.22;5053994;27;102023;-63
2022/07/29 08:22:40;;;;;;;1.50;1.40;;;;;;;26.12;100.00;96248.50;5050172;27;105787;-63
2022/07/29 08:25:08;;;;;;;1.40;1.30;;;;;;;25.71;100.00;96244.31;5051742;27;101898;-65
2022/07/29 08:27:49;;;;;;;1.57;1.47;;;;;;;25.14;100.00;96240.38;5052136;27;103000;-64
2022/07/29 08:30:16;;;;;;;1.50;1.40;;;;;;;25.38;100.00;96243.03;5031250;27;103291;-63
2022/07/29 08:32:45;;;;;;;1.30;1.30;;;;;;;25.30;100.00;96238.53;5031773;28;101867;-64
2022/07/29 08:35:12;;;;;;;1.47;1.37;;;;;;;25.45;100.00;96240.50;5051003;27;102371;-64
2022/07/29 08:37:39;;;;;;;1.40;1.30;;;;;;;25.23;100.00;96243.75;5041855;27;105160;-65
2022/07/29 08:40:07;;;;;;;2.00;1.40;;;;;;;25.65;100.00;96245.72;5031310;28;102182;-65
2022/07/29 08:42:33;;;;;;;1.60;1.50;;;;;;;25.80;100.00;96244.97;5032970;28;105778;-65
2022/07/29 08:45:47;;;;;;;1.87;1.33;;;;;;;25.61;100.00;96241.34;5031373;28;102101;-65
2022/07/29 08:48:17;;;;;;;1.53;1.40;;;;;;;25.50;100.00;96245.72;5042913;27;103939;-65
2022/07/29 08:50:45;;;;;;;1.67;1.40;;;;;;;25.74;100.00;96248.28;5049123;27;106516;-65
2022/07/29 08:53:14;;;;;;;1.53;1.40;;;;;;;26.18;100.00;96244.38;5050181;27;102111;-65
2022/07/29 08:55:44;;;;;;;1.50;1.40;;;;;;;25.81;100.00;96252.00;5050105;27;103010;-65
2022/07/29 08:58:27;;;;;;;1.87;1.43;;;;;;;25.77;100.00;96256.53;5049419;27;105887;-65
2022/07/29 09:00:56;;;;;;;1.30;1.20;;;;;;;26.22;100.00;96251.47;5050236;27;102162;-65
2022/07/29 09:03:34;;;;;;;1.50;1.40;;;;;;;26.49;100.00;96255.25;5049405;27;102368;-65
2022/07/29 09:06:02;;;;;;;1.93;1.40;;;;;;;26.65;100.00;96264.22;5054278;27;102490;-65
2022/07/29 09:08:29;;;;;;;1.50;1.40;;;;;;;26.59;100.00;96260.19;5049882;27;105220;-66
2022/07/29 09:10:56;;;;;;;1.80;1.50;;;;;;;26.53;100.00;96262.34;5050695;27;103576;-65
2022/07/29 09:13:29;;;;;;;2.00;1.70;;;;;;;25.55;100.00;96253.63;5051258;27;101828;-64
2022/07/29 09:15:56;;;;;;;1.50;1.40;;;;;;;26.48;100.00;96248.22;5049995;27;103467;-65
2022/07/29 09:18:38;;;;;;;1.50;1.40;;;;;;;27.15;100.00;96245.03;5033905;27;103101;-64
2022/07/29 09:24:07;;;;;;;1.50;1.40;;;;;;;27.32;96.52;96248.16;5029500;28;105112;-64
2022/07/29 09:26:37;;;;;;;2.13;1.50;;;;;;;27.61;86.96;96242.09;5032017;28;105758;-64
2022/07/29 09:29:12;;;;;;;1.53;1.43;;;;;;;27.75;88.23;96247.00;5030754;28;102150;-65
2022/07/29 09:31:41;;;;;;;2.50;1.70;;;;;;;28.04;86.91;96254.59;5028791;28;103861;-65
2022/07/29 09:35:00;;;;;;;1.83;1.47;;;;;;;27.37;85.50;96247.06;5029302;28;102109;-65
2022/07/29 09:37:29;;;;;;;1.20;1.13;;;;;;;27.89;88.36;96247.31;5030978;28;102857;-67
2022/07/29 09:39:56;;;;;;;1.13;1.13;;;;;;;26.94;82.75;96255.50;5028407;28;106970;-66
2022/07/29 09:42:29;;;;;;;1.53;1.30;;;;;;;27.17;79.37;96245.47;5030625;28;101857;-65
2022/07/29 09:45:06;;;;;;;1.37;1.07;;;;;;;27.52;72.21;96235.28;5037307;27;105252;-65
2022/07/29 09:47:44;;;;;;;1.20;1.10;;;;;;;27.50;72.23;96241.09;5050287;27;102666;-64
2022/07/29 09:50:12;;;;;;;1.13;1.13;;;;;;;27.23;65.78;96239.38;5054336;27;101982;-64
2022/07/29 09:52:49;;;;;;;1.07;1.03;;;;;;;27.47;70.10;96241.03;5049889;27;102624;-64
2022/07/29 09:55:18;;;;;;;1.20;1.17;;;;;;;27.35;64.91;96246.66;5050875;27;101655;-65
2022/07/29 09:58:16;;;;;;;1.30;1.20;;;;;;;27.71;68.93;96240.69;5050219;27;102304;-64
2022/07/29 10:00:46;;;;;;;2.10;1.00;;;;;;;27.99;59.89;96243.94;5049539;27;102543;-66
2022/07/29 10:03:24;;;;;;;1.33;1.17;;;;;;;27.13;62.67;96236.44;5045499;27;101844;-66
2022/07/29 10:06:06;;;;;;;0.90;0.90;;;;;;;28.18;66.14;96236.47;5029920;27;102447;-66
2022/07/29 10:08:34;;;;;;;1.67;1.00;;;;;;;28.11;58.17;96230.13;5033156;28;103043;-66
2022/07/29 10:11:11;;;;;;;1.13;1.03;;;;;;;28.71;57.30;96224.41;5032514;28;102034;-66
2022/07/29 10:13:56;;;;;;;1.00;1.00;;;;;;;28.90;56.41;96221.56;5036660;28;102189;-66
2022/07/29 10:16:24;;;;;;;1.30;1.20;;;;;;;29.28;53.69;96220.50;5033833;28;101688;-66
2022/07/29 10:18:52;;;;;;;1.10;1.00;;;;;;;29.08;52.11;96230.81;5033486;28;102909;-66
2022/07/29 10:21:19;;;;;;;1.17;1.10;;;;;;;29.42;51.44;96228.88;5033065;28;102643;-66
2022/07/29 10:24:05;;;;;;;1.00;1.00;;;;;;;29.90;55.03;96231.38;5033474;28;101809;-66
2022/07/29 10:26:33;;;;;;;1.07;0.97;;;;;;;29.84;49.23;96237.56;5033791;28;102568;-66
2022/07/29 10:29:03;;;;;;;1.03;1.03;;;;;;;29.82;51.73;96228.94;5032954;28;102596;-66
2022/07/29 10:31:42;;;;;;;1.00;1.00;;;;;;;30.35;53.21;96227.47;5033433;28;101824;-66
2022/07/29 10:34:36;;;;;;;1.30;1.17;;;;;;;30.25;50.49;96228.94;5053755;27;102839;-66
2022/07/29 10:37:18;;;;;;;1.00;1.00;;;;;;;30.64;49.55;96224.56;5040231;27;105798;-66
2022/07/29 10:39:56;;;;;;;1.73;1.00;;;;;;;31.05;47.44;96225.97;5032564;28;103974;-66
2022/07/29 10:42:25;;;;;;;1.15;1.10;;;;;;;30.07;44.22;96213.50;5032881;28;102585;-66
2022/07/29 10:45:13;;;;;;;1.20;1.10;;;;;;;29.53;48.51;96213.34;5032976;28;101993;-66
2022/07/29 10:47:40;;;;;;;1.30;1.15;;;;;;;29.95;48.06;96222.81;5031267;28;103681;-66
2022/07/29 10:50:08;;;;;;;2.70;1.33;;;;;;;29.37;48.95;96208.06;5032254;28;103184;-66
2022/07/29 10:53:02;;;;;;;1.40;1.30;;;;;;;30.05;50.79;96208.41;5033147;28;101859;-66
2022/07/29 10:55:42;;;;;;;1.48;1.38;;;;;;;29.69;47.73;96209.22;5033291;28;102671;-66
2022/07/29 10:58:19;;;;;;;1.20;1.10;;;;;;;30.27;49.51;96203.88;5030882;28;106582;-66
2022/07/29 11:00:47;;;;;;;1.10;1.00;;;;;;;30.64;49.02;96207.28;5054572;27;101957;-66
2022/07/29 11:07:07;;;;;;;1.85;1.30;;;;;;;31.57;45.49;96208.13;5051757;27;101844;-66
2022/07/29 11:09:35;;;;;;;2.60;1.50;;;;;;;31.46;44.81;96201.81;5053297;27;102541;-65
2022/07/29 11:12:04;;;;;;;1.42;1.17;;;;;;;30.51;46.25;96203.28;5044275;27;105068;-65
2022/07/29 11:14:57;;;;;;;1.88;1.73;;;;;;;30.04;44.70;96204.09;5032477;28;101890;-66
2022/07/29 11:17:25;;;;;;;1.45;1.35;;;;;;;29.30;47.85;96196.22;5030882;27;105754;-66
2022/07/29 11:19:52;;;;;;;1.60;1.50;;;;;;;29.11;51.78;96193.69;5029868;28;105263;-66
2022/07/29 11:22:34;;;;;;;1.60;1.50;;;;;;;29.75;51.73;96196.75;5031303;28;102058;-66
2022/07/29 11:25:26;;;;;;;1.50;1.40;;;;;;;30.08;47.78;96198.63;5033992;28;105357;-66
2022/07/29 11:28:30;;;;;;;1.50;1.30;;;;;;;29.50;49.44;96198.44;5031247;28;101706;-66
2022/07/29 11:30:59;;;;;;;2.00;1.40;;;;;;;30.02;53.20;96195.44;5030964;28;103817;-66
2022/07/29 11:33:31;;;;;;;1.60;1.50;;;;;;;30.62;47.22;96201.41;5030345;28;105122;-66
2022/07/29 11:36:12;;;;;;;1.42;1.33;;;;;;;30.59;47.24;96191.16;5035115;27;101906;-66
2022/07/29 11:38:39;;;;;;;1.70;1.40;;;;;;;31.17;45.17;96191.91;5047827;27;105326;-66
2022/07/29 11:41:24;;;;;;;2.00;1.52;;;;;;;29.51;48.52;96196.47;5050774;27;105391;-66
2022/07/29 11:44:43;;;;;;;1.73;1.55;;;;;;;29.47;52.46;96193.69;5051268;27;101779;-65